createdAt,value
2018-08-19T00:01:48.845Z,100412.57
2018-08-19T00:04:16.450Z,100415.40
2018-08-19T00:06:44.066Z,100407.41
2018-08-19T00:09:12.586Z,100403.25
2018-08-19T00:11:41.914Z,100405.75
2018-08-19T00:14:26.866Z,100407.89
2018-08-19T00:16:56.473Z,100398.71
2018-08-19T00:19:24.384Z,100395.72
2018-08-19T00:21:52.059Z,100398.23
2018-08-19T00:24:19.686Z,100393.88
2018-08-19T00:26:47.710Z,100394.42
2018-08-19T00:29:23.458Z,100393.75
2018-08-19T00:31:51.931Z,100394.93
2018-08-19T00:34:25.317Z,100392.41
2018-08-19T00:36:52.898Z,100389.75
2018-08-19T00:39:21.408Z,100393.05
2018-08-19T00:41:49.086Z,100402.56
2018-08-19T00:44:16.704Z,100412.05
2018-08-19T00:46:44.280Z,100402.56
2018-08-19T00:49:11.887Z,100404.73
2018-08-19T00:51:44.063Z,100400.39
2018-08-19T00:54:11.968Z,100401.55
2018-08-19T00:56:39.604Z,100408.22
2018-08-19T00:59:09.393Z,100409.56
2018-08-19T01:01:38.503Z,100405.72
2018-08-19T01:04:07.749Z,100405.88
2018-08-19T01:06:41.389Z,100406.26
2018-08-19T01:09:09.748Z,100415.22
2018-08-19T01:11:40.320Z,100411.55
2018-08-19T01:14:13.065Z,100406.57
2018-08-19T01:16:41.005Z,100413.56
2018-08-19T01:19:09.761Z,100416.23
2018-08-19T01:21:37.424Z,100413.89
2018-08-19T01:24:08.772Z,100416.89
2018-08-19T01:26:37.587Z,100412.55
2018-08-19T01:29:07.100Z,100416.05
2018-08-19T01:31:34.996Z,100416.05
2018-08-19T01:34:10.401Z,100405.08
2018-08-19T01:36:38.051Z,100405.91
2018-08-19T01:39:10.195Z,100409.22
2018-08-19T01:41:38.605Z,100411.20
2018-08-19T01:44:09.315Z,100413.91
2018-08-19T01:46:47.934Z,100410.41
2018-08-19T01:49:15.581Z,100415.09
2018-08-19T01:51:44.389Z,100417.87
2018-08-19T01:54:17.720Z,100427.17
2018-08-19T01:56:45.362Z,100427.51
2018-08-19T01:59:13.008Z,100421.70
2018-08-19T02:01:49.722Z,100417.20
2018-08-19T02:04:17.663Z,100416.05
2018-08-19T02:06:45.277Z,100417.87
2018-08-19T02:09:14.946Z,100420.72
2018-08-19T02:11:45.858Z,100423.73
2018-08-19T02:14:14.101Z,100416.37
2018-08-19T02:16:41.741Z,100417.39
2018-08-19T02:19:10.027Z,100423.37
2018-08-19T02:21:37.636Z,100416.22
2018-08-19T02:24:05.686Z,100418.38
2018-08-19T02:26:33.266Z,100408.91
2018-08-19T02:29:00.827Z,100413.74
2018-08-19T02:31:29.430Z,100417.23
2018-08-19T02:33:57.006Z,100399.59
2018-08-19T02:36:25.320Z,100400.08
2018-08-19T02:38:53.918Z,100398.73
2018-08-19T02:41:21.805Z,100396.94
2018-08-19T02:43:57.905Z,100398.91
2018-08-19T02:46:26.339Z,100400.58
2018-08-19T02:48:54.555Z,100405.41
2018-08-19T02:51:22.154Z,100400.73
2018-08-19T02:53:51.009Z,100397.23
2018-08-19T02:56:19.210Z,100389.41
2018-08-19T02:58:47.426Z,100391.56
2018-08-19T03:01:16.074Z,100387.24
2018-08-19T03:03:43.641Z,100378.27
2018-08-19T03:06:11.241Z,100378.42
2018-08-19T03:08:46.308Z,100377.41
2018-08-19T03:11:16.776Z,100374.44
2018-08-19T03:13:44.365Z,100372.75
2018-08-19T03:16:11.954Z,100377.77
2018-08-19T03:18:39.566Z,100379.92
2018-08-19T03:21:07.137Z,100384.56
2018-08-19T03:23:34.709Z,100379.07
2018-08-19T03:26:02.286Z,100372.42
2018-08-19T03:28:29.840Z,100375.26
2018-08-19T03:31:01.857Z,100369.61
2018-08-19T03:33:30.104Z,100368.92
2018-08-19T03:35:57.648Z,100372.21
2018-08-19T03:38:26.246Z,100372.53
2018-08-19T03:40:55.469Z,100373.05
2018-08-19T03:43:23.053Z,100376.55
2018-08-19T03:45:51.234Z,100377.55
2018-08-19T03:48:18.843Z,100370.20
2018-08-19T03:50:46.430Z,100370.39
2018-08-19T03:53:14.266Z,100364.08
2018-08-19T03:55:41.828Z,100360.22
2018-08-19T03:58:10.361Z,100359.51
2018-08-19T04:00:40.570Z,100365.98
2018-08-19T04:03:17.071Z,100365.48
2018-08-19T04:05:54.423Z,100374.64
2018-08-19T04:08:39.729Z,100379.19
2018-08-19T04:11:07.629Z,100377.30
2018-08-19T04:13:38.170Z,100377.30
2018-08-19T04:16:07.665Z,100373.70
2018-08-19T04:18:40.160Z,100380.85
2018-08-19T04:21:09.748Z,100380.55
2018-08-19T04:23:40.301Z,100376.68
2018-08-19T04:26:07.731Z,100378.12
2018-08-19T04:28:37.285Z,100373.86
2018-08-19T04:31:14.160Z,100376.65
2018-08-19T04:33:44.376Z,100378.97
2018-08-19T04:36:14.148Z,100384.62
2018-08-19T04:38:41.919Z,100388.50
2018-08-19T04:41:09.782Z,100388.70
2018-08-19T04:43:37.406Z,100393.39
2018-08-19T04:46:05.009Z,100397.55
2018-08-19T04:48:32.610Z,100389.23
2018-08-19T04:51:00.268Z,100392.56
2018-08-19T04:53:28.978Z,100398.38
2018-08-19T04:55:56.541Z,100398.91
2018-08-19T04:58:24.953Z,100394.42
2018-08-19T05:00:52.556Z,100385.92
2018-08-19T05:03:20.427Z,100387.42
2018-08-19T05:05:48.063Z,100390.58
2018-08-19T05:08:15.873Z,100394.76
2018-08-19T05:10:43.276Z,100383.91
2018-08-19T05:13:12.022Z,100390.17
2018-08-19T05:15:40.631Z,100392.65
2018-08-19T05:18:08.726Z,100395.95
2018-08-19T05:20:36.311Z,100397.59
2018-08-19T05:23:04.181Z,100403.89
2018-08-19T05:25:31.745Z,100402.84
2018-08-19T05:28:05.347Z,100403.64
2018-08-19T05:30:33.991Z,100404.08
2018-08-19T05:33:03.417Z,100407.41
2018-08-19T05:35:32.105Z,100411.05
2018-08-19T05:38:00.826Z,100420.41
2018-08-19T05:40:28.662Z,100420.85
2018-08-19T05:42:56.265Z,100422.52
2018-08-19T05:45:23.877Z,100409.06
2018-08-19T05:48:08.252Z,100420.41
2018-08-19T05:50:35.984Z,100418.95
2018-08-19T05:53:03.678Z,100425.06
2018-08-19T05:55:31.325Z,100426.76
2018-08-19T05:57:58.958Z,100421.86
2018-08-19T06:00:27.311Z,100424.24
2018-08-19T06:02:58.255Z,100422.20
2018-08-19T06:05:26.252Z,100431.79
2018-08-19T06:07:59.712Z,100436.80
2018-08-19T06:10:27.643Z,100436.20
2018-08-19T06:12:55.315Z,100438.20
2018-08-19T06:15:22.995Z,100438.10
2018-08-19T06:17:50.619Z,100442.41
2018-08-19T06:20:18.250Z,100441.28
2018-08-19T06:22:45.886Z,100437.81
2018-08-19T06:25:14.166Z,100449.27
2018-08-19T06:27:44.716Z,100433.74
2018-08-19T06:30:13.312Z,100431.11
2018-08-19T06:32:40.923Z,100431.18
2018-08-19T06:35:08.660Z,100431.11
2018-08-19T06:37:36.310Z,100433.61
2018-08-19T06:40:05.884Z,100429.14
2018-08-19T06:42:33.491Z,100429.86
2018-08-19T06:45:01.138Z,100431.78
2018-08-19T06:47:28.782Z,100424.65
2018-08-19T06:50:00.069Z,100429.74
2018-08-19T06:52:28.122Z,100427.63
2018-08-19T06:54:55.896Z,100426.64
2018-08-19T06:57:27.392Z,100433.42
2018-08-19T06:59:55.265Z,100436.09
2018-08-19T07:02:23.073Z,100440.25
2018-08-19T07:04:50.742Z,100437.09
2018-08-19T07:07:19.126Z,100431.66
2018-08-19T07:09:46.791Z,100432.36
2018-08-19T07:12:22.424Z,100432.88
2018-08-19T07:14:50.419Z,100437.16
2018-08-19T07:17:18.738Z,100436.52
2018-08-19T07:19:46.455Z,100438.33
2018-08-19T07:22:17.079Z,100439.33
2018-08-19T07:24:44.769Z,100443.41
2018-08-19T07:27:12.383Z,100444.36
2018-08-19T07:29:40.086Z,100440.91
2018-08-19T07:32:09.695Z,100443.91
2018-08-19T07:34:37.400Z,100444.41
2018-08-19T07:37:05.141Z,100443.05
2018-08-19T07:39:40.992Z,100439.12
2018-08-19T07:42:08.654Z,100439.95
2018-08-19T07:44:36.460Z,100445.44
2018-08-19T07:47:04.190Z,100448.66
2018-08-19T07:49:32.183Z,100444.78
2018-08-19T07:51:59.802Z,100438.25
2018-08-19T07:54:27.389Z,100440.69
2018-08-19T07:56:55.021Z,100438.33
2018-08-19T07:59:22.632Z,100443.76
2018-08-19T08:01:50.257Z,100440.26
2018-08-19T08:04:22.640Z,100438.55
2018-08-19T08:06:50.298Z,100434.45
2018-08-19T08:09:17.942Z,100441.35
2018-08-19T08:11:45.577Z,100437.16
2018-08-19T08:14:13.190Z,100435.70
2018-08-19T08:16:46.564Z,100433.87
2018-08-19T08:19:14.220Z,100433.25
2018-08-19T08:21:42.041Z,100439.37
2018-08-19T08:24:09.634Z,100440.41
2018-08-19T08:26:46.938Z,100437.39
2018-08-19T08:29:14.670Z,100443.14
2018-08-19T08:31:48.606Z,100440.47
2018-08-19T08:34:16.325Z,100436.33
2018-08-19T08:36:43.968Z,100439.81
2018-08-19T08:39:12.787Z,100442.12
2018-08-19T08:41:40.444Z,100443.20
2018-08-19T08:44:08.062Z,100437.54
2018-08-19T08:46:35.698Z,100427.80
2018-08-19T08:49:03.366Z,100428.61
2018-08-19T08:51:31.026Z,100429.97
2018-08-19T08:53:59.486Z,100425.45
2018-08-19T08:56:27.222Z,100420.30
2018-08-19T08:58:54.850Z,100420.58
2018-08-19T09:01:22.506Z,100415.02
2018-08-19T09:03:50.078Z,100412.78
2018-08-19T09:06:23.504Z,100413.09
2018-08-19T09:08:51.088Z,100397.19
2018-08-19T09:11:18.734Z,100402.13
2018-08-19T09:13:46.841Z,100398.44
2018-08-19T09:16:15.089Z,100398.66
2018-08-19T09:18:42.822Z,100397.09
2018-08-19T09:21:10.480Z,100393.60
2018-08-19T09:23:38.476Z,100392.23
2018-08-19T09:26:06.133Z,100388.17
2018-08-19T09:28:33.846Z,100396.11
2018-08-19T09:31:01.577Z,100388.34
2018-08-19T09:33:29.403Z,100382.63
2018-08-19T09:35:57.096Z,100381.25
2018-08-19T09:38:24.674Z,100372.10
2018-08-19T09:40:53.027Z,100368.37
2018-08-19T09:43:20.706Z,100368.45
2018-08-19T09:45:48.622Z,100365.30
2018-08-19T09:48:16.616Z,100367.10
2018-08-19T09:50:44.647Z,100367.72
2018-08-19T09:53:12.330Z,100360.30
2018-08-19T09:55:42.145Z,100359.16
2018-08-19T09:58:16.077Z,100356.57
2018-08-19T10:00:49.392Z,100343.34
2018-08-19T10:03:17.338Z,100352.30
2018-08-19T10:05:44.988Z,100346.80
2018-08-19T10:08:12.658Z,100339.21
2018-08-19T10:10:40.278Z,100333.88
2018-08-19T10:13:08.135Z,100333.05
2018-08-19T10:15:36.108Z,100332.92
2018-08-19T10:18:06.715Z,100324.97
2018-08-19T10:20:35.000Z,100323.20
2018-08-19T10:23:02.550Z,100318.61
2018-08-19T10:25:30.269Z,100314.63
2018-08-19T10:27:57.965Z,100319.42
2018-08-19T10:30:25.848Z,100314.86
2018-08-19T10:33:02.078Z,100314.76
2018-08-19T10:35:30.274Z,100309.79
2018-08-19T10:37:59.611Z,100303.29
2018-08-19T10:40:27.248Z,100306.14
2018-08-19T10:43:03.364Z,100297.77
2018-08-19T10:45:30.996Z,100302.49
2018-08-19T10:47:58.770Z,100295.56
2018-08-19T10:50:28.214Z,100292.76
2018-08-19T10:52:55.858Z,100289.76
2018-08-19T10:55:25.744Z,100287.85
2018-08-19T10:57:53.792Z,100284.07
2018-08-19T11:00:31.457Z,100288.40
2018-08-19T11:03:08.974Z,100277.72
2018-08-19T11:05:39.253Z,100273.88
2018-08-19T11:08:09.078Z,100277.88
2018-08-19T11:10:36.725Z,100273.75
2018-08-19T11:13:04.590Z,100265.12
2018-08-19T11:15:41.032Z,100263.68
2018-08-19T11:18:21.272Z,100254.15
2018-08-19T11:20:50.366Z,100248.08
2018-08-19T11:23:25.937Z,100247.14
2018-08-19T11:25:54.355Z,100248.84
2018-08-19T11:28:36.430Z,100246.14
2018-08-19T11:31:04.951Z,100238.17
2018-08-19T11:33:42.713Z,100234.63
2018-08-19T11:36:11.014Z,100232.12
2018-08-19T11:38:39.506Z,100230.53
2018-08-19T11:41:08.805Z,100227.92
2018-08-19T11:43:43.760Z,100234.01
2018-08-19T11:46:11.458Z,100231.27
2018-08-19T11:48:39.787Z,100231.83
2018-08-19T11:51:08.193Z,100227.11
2018-08-19T11:53:36.013Z,100223.21
2018-08-19T11:56:03.967Z,100227.78
2018-08-19T11:58:40.760Z,100236.38
2018-08-19T12:01:13.116Z,100227.20
2018-08-19T12:04:09.886Z,100230.31
2018-08-19T12:06:37.505Z,100232.30
2018-08-19T12:09:08.625Z,100227.06
2018-08-19T12:11:39.784Z,100231.02
2018-08-19T12:14:11.658Z,100221.74
2018-08-19T12:16:47.449Z,100224.84
2018-08-19T12:19:20.837Z,100225.14
2018-08-19T12:21:50.574Z,100219.50
2018-08-19T12:24:23.388Z,100222.51
2018-08-19T12:26:54.594Z,100216.05
2018-08-19T12:29:23.557Z,100209.09
2018-08-19T12:31:57.173Z,100210.89
2018-08-19T12:34:25.151Z,100212.67
2018-08-19T12:36:52.798Z,100209.87
2018-08-19T12:39:20.578Z,100197.70
2018-08-19T12:41:52.849Z,100196.31
2018-08-19T12:44:20.636Z,100187.96
2018-08-19T12:47:04.500Z,100189.05
2018-08-19T12:49:37.798Z,100179.02
2018-08-19T12:52:06.785Z,100184.58
2018-08-19T12:54:34.446Z,100175.09
2018-08-19T12:57:02.165Z,100161.36
2018-08-19T12:59:30.022Z,100154.38
2018-08-19T13:01:57.789Z,100168.73
2018-08-19T13:04:25.455Z,100162.20
2018-08-19T13:07:14.316Z,100158.03
2018-08-19T13:09:41.953Z,100154.17
2018-08-19T13:12:11.586Z,100152.25
2018-08-19T13:14:39.268Z,100141.56
2018-08-19T13:17:07.299Z,100127.48
2018-08-19T13:19:35.016Z,100111.65
2018-08-19T13:22:03.145Z,100108.38
2018-08-19T13:24:37.556Z,100106.82
2018-08-19T13:27:06.558Z,100112.33
2018-08-19T13:29:34.797Z,100107.05
2018-08-19T13:32:02.454Z,100105.48
2018-08-19T13:34:30.097Z,100100.03
2018-08-19T13:36:57.977Z,100099.98
2018-08-19T13:39:26.150Z,100089.57
2018-08-19T13:41:53.923Z,100093.78
2018-08-19T13:44:21.673Z,100092.34
2018-08-19T13:46:49.279Z,100096.07
2018-08-19T13:49:21.800Z,100103.03
2018-08-19T13:51:50.065Z,100098.96
2018-08-19T13:54:18.064Z,100095.33
2018-08-19T13:56:45.768Z,100090.31
2018-08-19T13:59:13.852Z,100073.41
2018-08-19T14:01:41.826Z,100072.17
2018-08-19T14:04:10.097Z,100070.06
2018-08-19T14:06:38.258Z,100066.73
2018-08-19T14:09:06.870Z,100061.81
2018-08-19T14:11:34.537Z,100067.44
2018-08-19T14:14:02.192Z,100067.50
2018-08-19T14:16:30.504Z,100063.05
2018-08-19T14:18:58.706Z,100062.66
2018-08-19T14:21:26.410Z,100065.10
2018-08-19T14:23:54.230Z,100066.30
2018-08-19T14:26:21.806Z,100072.91
2018-08-19T14:28:49.384Z,100075.46
2018-08-19T14:31:17.185Z,100074.61
2018-08-19T14:33:45.006Z,100079.44
2018-08-19T14:36:12.621Z,100071.31
2018-08-19T14:38:40.291Z,100051.02
2018-08-19T14:41:08.527Z,100053.13
2018-08-19T14:43:55.192Z,100050.31
2018-08-19T14:46:23.325Z,100048.09
2018-08-19T14:48:55.782Z,100058.93
2018-08-19T14:51:23.992Z,100049.07
2018-08-19T14:53:52.997Z,100038.45
2018-08-19T14:56:20.643Z,100031.17
2018-08-19T14:58:48.217Z,100021.77
2018-08-19T15:01:15.910Z,100026.41
2018-08-19T15:03:48.246Z,100021.47
2018-08-19T15:06:16.008Z,100011.20
2018-08-19T15:08:43.714Z,100014.23
2018-08-19T15:11:11.770Z,100017.77
2018-08-19T15:13:39.438Z,100007.94
2018-08-19T15:16:06.973Z,100009.97
2018-08-19T15:18:34.827Z,100010.34
2018-08-19T15:21:02.450Z,100000.80
2018-08-19T15:23:30.123Z,100001.34
2018-08-19T15:25:57.725Z,99997.35
2018-08-19T15:28:25.315Z,99987.34
2018-08-19T15:30:52.960Z,99995.78
2018-08-19T15:33:21.086Z,99999.53
2018-08-19T15:35:48.731Z,99993.53
2018-08-19T15:38:16.395Z,99991.91
2018-08-19T15:40:46.597Z,99982.62
2018-08-19T15:43:14.223Z,99980.36
2018-08-19T15:45:42.605Z,99977.31
2018-08-19T15:48:10.251Z,99974.08
2018-08-19T15:50:37.906Z,99975.52
2018-08-19T15:53:07.770Z,99987.02
2018-08-19T15:55:35.895Z,99982.98
2018-08-19T15:58:04.079Z,99983.80
2018-08-19T16:00:38.720Z,99977.06
2018-08-19T16:03:07.836Z,99975.95
2018-08-19T16:05:35.498Z,99980.48
2018-08-19T16:08:04.419Z,99972.34
2018-08-19T16:10:32.084Z,99978.30
2018-08-19T16:13:06.923Z,99972.98
2018-08-19T16:15:34.645Z,99971.34
2018-08-19T16:18:02.393Z,99977.98
2018-08-19T16:20:30.061Z,99969.61
2018-08-19T16:22:57.767Z,99957.95
2018-08-19T16:25:25.496Z,99948.70
2018-08-19T16:27:53.447Z,99953.44
2018-08-19T16:30:21.166Z,99956.73
2018-08-19T16:32:48.872Z,99953.97
2018-08-19T16:35:16.643Z,99960.49
2018-08-19T16:37:44.307Z,99956.25
2018-08-19T16:40:12.683Z,99953.50
2018-08-19T16:42:41.544Z,99942.50
2018-08-19T16:45:10.255Z,99953.14
2018-08-19T16:47:37.962Z,99949.79
2018-08-19T16:50:09.130Z,99941.05
2018-08-19T16:52:36.737Z,99940.17
2018-08-19T16:55:05.433Z,99945.17
2018-08-19T16:57:33.044Z,99927.22
2018-08-19T17:00:00.695Z,99936.37
2018-08-19T17:02:28.357Z,99937.84
2018-08-19T17:04:55.996Z,99933.52
2018-08-19T17:07:23.667Z,99928.82
2018-08-19T17:09:52.274Z,99930.49
2018-08-19T17:12:19.931Z,99929.79
2018-08-19T17:14:47.627Z,99923.78
2018-08-19T17:17:15.580Z,99928.03
2018-08-19T17:19:43.441Z,99927.19
2018-08-19T17:22:11.035Z,99916.47
2018-08-19T17:24:38.939Z,99927.75
2018-08-19T17:27:11.141Z,99931.03
2018-08-19T17:29:39.164Z,99922.95
2018-08-19T17:32:07.009Z,99918.46
2018-08-19T17:34:38.838Z,99923.20
2018-08-19T17:37:07.794Z,99925.37
2018-08-19T17:39:36.393Z,99918.86
2018-08-19T17:42:04.624Z,99923.17
2018-08-19T17:44:32.398Z,99921.54
2018-08-19T17:47:00.133Z,99924.95
2018-08-19T17:49:29.268Z,99924.06
2018-08-19T17:51:58.746Z,99921.65
2018-08-19T17:54:29.606Z,99921.73
2018-08-19T17:56:59.385Z,99924.66
2018-08-19T17:59:27.901Z,99929.42
2018-08-19T18:01:56.347Z,99931.20
2018-08-19T18:04:34.103Z,99931.44
2018-08-19T18:07:02.136Z,99928.89
2018-08-19T18:09:29.981Z,99927.80
2018-08-19T18:12:04.905Z,99936.55
2018-08-19T18:14:33.629Z,99934.72
2018-08-19T18:17:01.864Z,99934.13
2018-08-19T18:19:33.550Z,99937.55
2018-08-19T18:22:01.616Z,99947.23
2018-08-19T18:24:29.299Z,99948.60
2018-08-19T18:26:57.130Z,99948.02
2018-08-19T18:29:24.858Z,99948.34
2018-08-19T18:31:52.862Z,99940.31
2018-08-19T18:34:20.582Z,99945.95
2018-08-19T18:36:48.296Z,99943.58
2018-08-19T18:39:15.924Z,99946.66
2018-08-19T18:41:45.196Z,99953.36
2018-08-19T18:44:13.324Z,99955.43
2018-08-19T18:46:41.094Z,99954.70
2018-08-19T18:49:13.824Z,99952.41
2018-08-19T18:51:45.339Z,99946.06
2018-08-19T18:54:25.847Z,99948.02
2018-08-19T18:56:53.776Z,99954.02
2018-08-19T18:59:22.037Z,99958.30
2018-08-19T19:01:50.408Z,99956.80
2018-08-19T19:04:18.781Z,99953.97
2018-08-19T19:06:46.970Z,99951.69
2018-08-19T19:09:14.742Z,99951.61
2018-08-19T19:11:42.462Z,99952.63
2018-08-19T19:14:15.782Z,99945.14
2018-08-19T19:16:46.484Z,99948.92
2018-08-19T19:19:14.268Z,99940.87
2018-08-19T19:21:43.726Z,99944.56
2018-08-19T19:24:11.424Z,99939.37
2018-08-19T19:26:41.372Z,99938.95
2018-08-19T19:29:17.097Z,99936.83
2018-08-19T19:31:44.789Z,99938.97
2018-08-19T19:34:13.632Z,99936.70
2018-08-19T19:36:41.303Z,99937.16
2018-08-19T19:39:08.921Z,99934.89
2018-08-19T19:41:36.588Z,99936.06
2018-08-19T19:44:23.908Z,99929.82
2018-08-19T19:46:52.961Z,99929.98
2018-08-19T19:49:20.965Z,99938.55
2018-08-19T19:51:54.439Z,99934.02
2018-08-19T19:54:22.212Z,99933.72
2018-08-19T19:56:49.938Z,99934.53
2018-08-19T19:59:17.689Z,99933.83
2018-08-19T20:01:45.346Z,99935.59
2018-08-19T20:04:13.037Z,99930.79
2018-08-19T20:06:40.678Z,99935.67
2018-08-19T20:09:08.782Z,99929.80
2018-08-19T20:11:41.645Z,99927.02
2018-08-19T20:14:10.339Z,99930.41
2018-08-19T20:16:37.977Z,99930.32
2018-08-19T20:19:07.050Z,99933.72
2018-08-19T20:21:36.138Z,99929.62
2018-08-19T20:24:04.245Z,99933.92
2018-08-19T20:26:32.420Z,99933.81
2018-08-19T20:29:02.080Z,99943.72
2018-08-19T20:31:30.392Z,99941.15
2018-08-19T20:33:58.508Z,99936.81
2018-08-19T20:36:26.226Z,99934.13
2018-08-19T20:38:54.346Z,99934.33
2018-08-19T20:41:22.988Z,99929.70
2018-08-19T20:43:51.058Z,99937.75
2018-08-19T20:46:18.816Z,99935.59
2018-08-19T20:48:47.518Z,99936.30
2018-08-19T20:51:15.627Z,99936.80
2018-08-19T20:53:43.900Z,99937.94
2018-08-19T20:56:11.911Z,99930.91
2018-08-19T20:58:39.848Z,99934.84
2018-08-19T21:01:23.778Z,99930.20
2018-08-19T21:03:53.851Z,99932.66
2018-08-19T21:06:21.705Z,99934.39
2018-08-19T21:08:50.295Z,99934.34
2018-08-19T21:11:23.911Z,99932.59
2018-08-19T21:13:51.492Z,99933.42
2018-08-19T21:16:19.405Z,99933.73
2018-08-19T21:18:46.939Z,99931.45
2018-08-19T21:21:14.510Z,99933.62
2018-08-19T21:23:42.185Z,99928.75
2018-08-19T21:26:10.199Z,99935.74
2018-08-19T21:28:37.823Z,99921.82
2018-08-19T21:31:05.419Z,99928.02
2018-08-19T21:33:32.957Z,99932.37
2018-08-19T21:36:00.631Z,99925.94
2018-08-19T21:38:28.281Z,99925.77
2018-08-19T21:40:57.400Z,99924.72
2018-08-19T21:43:26.729Z,99928.12
2018-08-19T21:45:54.335Z,99932.36
2018-08-19T21:48:21.872Z,99921.23
2018-08-19T21:50:49.484Z,99928.38
2018-08-19T21:53:18.084Z,99923.19
2018-08-19T21:55:46.802Z,99924.02
2018-08-19T21:58:14.418Z,99933.77
2018-08-19T22:00:55.387Z,99930.44
2018-08-19T22:03:28.748Z,99924.96
2018-08-19T22:05:56.329Z,99926.40
2018-08-19T22:08:24.083Z,99923.09
2018-08-19T22:10:51.793Z,99924.52
2018-08-19T22:13:19.393Z,99923.34
2018-08-19T22:15:47.360Z,99928.34
2018-08-19T22:18:18.409Z,99927.69
2018-08-19T22:21:13.019Z,99921.62
2018-08-19T22:23:41.693Z,99921.30
2018-08-19T22:26:10.309Z,99921.05
2018-08-19T22:28:38.261Z,99925.34
2018-08-19T22:31:21.079Z,99921.62
2018-08-19T22:33:50.782Z,99926.43
2018-08-19T22:36:18.849Z,99923.32
2018-08-19T22:38:46.409Z,99914.73
2018-08-19T22:41:17.558Z,99917.93
2018-08-19T22:43:45.104Z,99919.34
2018-08-19T22:46:12.748Z,99921.00
2018-08-19T22:48:42.815Z,99919.54
2018-08-19T22:51:11.596Z,99920.28
2018-08-19T22:53:39.188Z,99913.69
2018-08-19T22:56:06.846Z,99913.91
2018-08-19T22:58:34.857Z,99923.47
2018-08-19T23:01:02.719Z,99919.22
2018-08-19T23:03:30.263Z,99926.55
2018-08-19T23:05:57.877Z,99923.64
2018-08-19T23:08:26.264Z,99922.72
2018-08-19T23:10:55.387Z,99913.69
2018-08-19T23:13:40.726Z,99919.69
2018-08-19T23:16:09.728Z,99915.99
2018-08-19T23:18:37.792Z,99916.59
2018-08-19T23:21:05.904Z,99918.67
2018-08-19T23:23:33.580Z,99916.59
2018-08-19T23:26:01.502Z,99912.34
2018-08-19T23:28:29.106Z,99910.55
2018-08-19T23:30:56.947Z,99916.91
2018-08-19T23:33:24.527Z,99919.43
2018-08-19T23:35:52.106Z,99919.05
2018-08-19T23:38:19.684Z,99922.27
2018-08-19T23:40:47.241Z,99917.66
2018-08-19T23:43:15.534Z,99917.70
2018-08-19T23:45:43.110Z,99916.58
2018-08-19T23:48:10.692Z,99911.69
2018-08-19T23:50:38.744Z,99913.02
2018-08-19T23:53:07.221Z,99909.52
2018-08-19T23:55:35.066Z,99914.80
2018-08-19T23:58:02.946Z,99911.38
